68A weather

Wrangell Seaplane Base
Wrangell, Alaska, United States

Public forecast

Using degrees Fahrenheit for public forecast. Weather courtesy of forecast.io.

Closest aviation weather report (METAR) to Wrangell Seaplane Base

Closest report is Wrangell Airport, 1.1 nm (2.1 km) NNE. Retrieved 2020/08/04 04:56 UTC (53 minutes ago):

PAWG 040456Z 00000KT 10SM SCT028 BKN040 OVC050 13/12 A3010

Closest aviation forecast (TAF) to Wrangell Seaplane Base

Closest forecast is Wrangell Airport, 1.1 nm (2.1 km) NNE. Retrieved 2020-08-04 00:36 UTC (5 hours ago):

TAF PAWG 032334Z 0400/0424 VRB05KT P6SM -SHRA BKN025 OVC040 FM041000 13010KT 6SM -RA BR OVC010 AMD LTD TO CLD VIS AND WIND 0406/0415